Terminal Aerodrome Forecast
Issued by NWS

Home | Current Version | Previous Version | Text Only | Print | Product List | Glossary On
Versions: 1 2 3 4 5 6 7 8 9 10 11 12 13 14 15 16 17 18 19
367
FTAK31 PAJN 242215 AAA
TAFASI
TAF AMD
PASI 242215Z 2422/2518 19010KT 5SM -SHRA BR SCT014 BKN020 OVC030
      TEMPO 2422/2502 3SM -SHRA BR BKN007 OVC014
     FM250300 16007KT P6SM VCSH SCT020 OVC040=

USA.gov is the U.S. government's official web portal to all federal, state and local government web resources and services.